Time;durP1;ratioP1;P1;durP2;ratioP2;P2;SDS_P1;SDS_P2;PMS_P1;PMS_P2;Temp;Humidity;BMP_temperature;BMP_pressure;BME280_temperature;BME280_humidity;BME280_pressure;Samples;Min_cycle;Max_cycle;Signal;HPM_P1;HPM_P2
2023/02/19 00:01:30;;;;;;;4.82;2.70;;;11.40;90.00;;;;;;5074869;28;20025;-79
2023/02/19 00:04:08;;;;;;;5.40;2.63;;;11.40;90.00;;;;;;5075274;28;20469;-79
2023/02/19 00:06:35;;;;;;;4.78;2.50;;;11.40;90.00;;;;;;5073747;28;20489;-79
2023/02/19 00:09:01;;;;;;;4.60;2.53;;;11.40;90.00;;;;;;5091975;28;20078;-79
2023/02/19 00:11:30;;;;;;;5.05;2.55;;;11.40;90.00;;;;;;5091546;28;20032;-78
2023/02/19 00:13:57;;;;;;;4.55;2.60;;;11.40;90.00;;;;;;5073710;28;20032;-79
2023/02/19 00:16:31;;;;;;;4.70;2.45;;;11.40;89.90;;;;;;5091717;28;20020;-78
2023/02/19 00:18:58;;;;;;;4.45;2.25;;;11.40;90.00;;;;;;5073650;28;20028;-79
2023/02/19 00:21:24;;;;;;;3.75;2.20;;;11.40;90.00;;;;;;5074442;28;20020;-79
2023/02/19 00:23:51;;;;;;;5.28;2.67;;;11.40;90.00;;;;;;5092727;28;20415;-80
2023/02/19 00:26:17;;;;;;;4.57;2.58;;;11.40;90.00;;;;;;5092309;28;20028;-79
2023/02/19 00:28:43;;;;;;;4.50;2.60;;;11.40;90.00;;;;;;5092450;28;20027;-79
2023/02/19 00:31:13;;;;;;;4.70;2.53;;;11.40;90.00;;;;;;5091814;28;20429;-79
2023/02/19 00:33:39;;;;;;;5.10;2.80;;;11.40;90.00;;;;;;5073138;28;20036;-78
2023/02/19 00:36:05;;;;;;;5.13;2.50;;;11.40;90.00;;;;;;5091249;28;20102;-79
2023/02/19 00:38:31;;;;;;;5.20;2.80;;;11.40;90.10;;;;;;5091287;28;20024;-79
2023/02/19 00:41:00;;;;;;;5.45;2.83;;;11.40;90.00;;;;;;5073275;28;20036;-79
2023/02/19 00:43:26;;;;;;;5.45;2.70;;;11.40;90.00;;;;;;5073132;28;20457;-78
2023/02/19 00:45:51;;;;;;;5.57;2.95;;;11.40;90.00;;;;;;5090793;28;20119;-78
2023/02/19 00:48:17;;;;;;;4.57;2.50;;;11.40;90.00;;;;;;5091288;28;20034;-79
2023/02/19 00:50:42;;;;;;;4.53;2.47;;;11.40;90.00;;;;;;5091025;28;20480;-79
2023/02/19 00:53:08;;;;;;;4.88;2.70;;;11.40;90.00;;;;;;5072772;28;20059;-79
2023/02/19 00:55:33;;;;;;;4.43;2.47;;;11.40;90.00;;;;;;5091077;28;20035;-79
2023/02/19 00:57:59;;;;;;;6.05;3.05;;;11.40;90.00;;;;;;5091289;28;20069;-78
2023/02/19 01:00:24;;;;;;;5.32;2.97;;;11.40;90.00;;;;;;5073110;28;20020;-78
2023/02/19 01:02:50;;;;;;;5.90;3.03;;;11.30;90.00;;;;;;5075266;28;20024;-79
2023/02/19 01:05:15;;;;;;;5.22;3.10;;;11.30;90.00;;;;;;5076774;28;20140;-78
2023/02/19 01:07:41;;;;;;;5.35;2.85;;;11.30;90.00;;;;;;5077125;28;20024;-79
2023/02/19 01:10:06;;;;;;;4.72;2.63;;;11.40;90.00;;;;;;5094681;28;20032;-79
2023/02/19 01:12:32;;;;;;;5.13;2.90;;;11.40;90.00;;;;;;5076753;28;20038;-79
2023/02/19 01:14:57;;;;;;;5.13;2.78;;;11.40;90.00;;;;;;5094943;28;20389;-79
2023/02/19 01:17:23;;;;;;;4.90;2.88;;;11.30;90.00;;;;;;5102260;28;20065;-78
2023/02/19 01:19:48;;;;;;;5.47;2.80;;;11.30;90.00;;;;;;5096965;28;20019;-79
2023/02/19 01:22:14;;;;;;;5.43;3.13;;;11.30;90.00;;;;;;5118895;28;20028;-79
2023/02/19 01:24:40;;;;;;;4.82;2.58;;;11.40;90.00;;;;;;5102111;28;20031;-79
2023/02/19 01:27:05;;;;;;;4.68;2.60;;;11.30;90.00;;;;;;5119457;28;20042;-80
2023/02/19 01:29:31;;;;;;;5.68;2.72;;;11.40;90.00;;;;;;5101178;28;20083;-79
2023/02/19 01:31:56;;;;;;;5.05;3.00;;;11.30;90.00;;;;;;5118650;28;20075;-79
2023/02/19 01:34:22;;;;;;;5.85;2.80;;;11.30;90.20;;;;;;5096297;28;20488;-79
2023/02/19 01:36:47;;;;;;;5.07;2.72;;;11.30;90.00;;;;;;5099939;28;20024;-79
2023/02/19 01:39:13;;;;;;;4.80;2.70;;;11.30;90.00;;;;;;5118983;28;20022;-80
2023/02/19 01:41:39;;;;;;;4.63;2.60;;;11.30;90.00;;;;;;5118366;28;20035;-79
2023/02/19 01:44:07;;;;;;;5.90;3.00;;;11.40;90.10;;;;;;5118283;28;20036;-80
2023/02/19 01:46:34;;;;;;;5.35;2.97;;;11.30;90.10;;;;;;5099548;28;20053;-80
2023/02/19 01:49:19;;;;;;;5.55;3.08;;;11.30;90.10;;;;;;5099605;28;20024;-79
2023/02/19 01:51:53;;;;;;;5.15;2.80;;;11.30;90.10;;;;;;5117803;28;20051;-79
2023/02/19 01:54:21;;;;;;;5.45;2.70;;;11.30;90.10;;;;;;5117428;28;20527;-79
2023/02/19 01:56:47;;;;;;;5.55;2.75;;;11.30;90.10;;;;;;5098737;28;20059;-79
2023/02/19 01:59:13;;;;;;;5.45;2.85;;;11.30;90.10;;;;;;5117140;28;20127;-79
2023/02/19 02:01:40;;;;;;;4.55;2.42;;;11.30;90.10;;;;;;5117761;28;20107;-79
2023/02/19 02:04:09;;;;;;;5.53;3.17;;;11.30;90.10;;;;;;5115931;28;20081;-78
2023/02/19 02:06:43;;;;;;;4.88;2.72;;;11.30;90.10;;;;;;5114844;28;20031;-79
2023/02/19 02:15:16;;;;;;;5.30;2.97;;;11.30;90.10;;;;;;5111382;28;20030;-79
2023/02/19 02:18:06;;;;;;;4.90;2.78;;;11.30;90.10;;;;;;5086795;28;20388;-79
2023/02/19 02:20:49;;;;;;;5.65;3.10;;;11.30;90.10;;;;;;5113172;28;20023;-79
2023/02/19 02:23:38;;;;;;;4.57;2.53;;;11.30;90.10;;;;;;5100208;28;20059;-80
2023/02/19 02:26:30;;;;;;;5.55;2.97;;;11.30;90.10;;;;;;5118142;28;20020;-80
2023/02/19 02:29:30;;;;;;;5.15;3.00;;;11.30;90.10;;;;;;5099920;28;20019;-79
2023/02/19 02:32:00;;;;;;;5.15;2.85;;;11.30;90.10;;;;;;5099828;28;20019;-79
2023/02/19 02:34:30;;;;;;;5.47;2.90;;;11.30;90.10;;;;;;5099560;28;20027;-79
2023/02/19 02:36:57;;;;;;;5.38;2.83;;;11.30;90.10;;;;;;5117617;28;20016;-79
2023/02/19 02:39:25;;;;;;;5.50;3.03;;;11.30;90.10;;;;;;5117497;28;20019;-78
2023/02/19 02:45:33;;;;;;;5.05;3.03;;;11.30;90.10;;;;;;5117077;28;20084;-79
2023/02/19 02:47:40;;;;;;;5.20;2.85;;;11.30;90.10;;;;;;5116855;28;20105;-79
2023/02/19 02:50:06;;;;;;;5.25;2.85;;;11.30;90.10;;;;;;5097970;28;20395;-79
2023/02/19 02:55:22;;;;;;;5.35;2.92;;;11.30;90.10;;;;;;5116547;28;20067;-79
2023/02/19 02:57:48;;;;;;;4.50;2.70;;;11.30;90.10;;;;;;5116416;28;20373;-78
2023/02/19 03:00:14;;;;;;;5.75;3.28;;;11.30;90.10;;;;;;5097516;28;20028;-79
2023/02/19 03:02:42;;;;;;;5.65;3.20;;;11.30;90.10;;;;;;5097206;28;20054;-81
2023/02/19 03:08:17;;;;;;;4.90;2.92;;;11.30;90.10;;;;;;5115753;28;20396;-79
2023/02/19 03:10:46;;;;;;;4.72;2.88;;;11.30;90.10;;;;;;5097059;28;20605;-79
2023/02/19 03:19:18;;;;;;;6.63;3.42;;;11.30;90.10;;;;;;5114757;28;20034;-79
2023/02/19 03:22:08;;;;;;;5.28;3.13;;;11.30;90.10;;;;;;5112805;28;20021;-79
2023/02/19 03:27:27;;;;;;;6.07;3.45;;;11.30;90.20;;;;;;5112961;28;20038;-78
2023/02/19 03:29:55;;;;;;;6.00;3.22;;;11.30;90.10;;;;;;5113315;28;20026;-79
2023/02/19 03:32:26;;;;;;;4.97;3.10;;;11.30;90.10;;;;;;5095932;28;20028;-78
2023/02/19 03:34:58;;;;;;;6.38;3.25;;;11.30;90.10;;;;;;5095292;28;20205;-78
2023/02/19 03:37:40;;;;;;;5.60;3.10;;;11.30;90.10;;;;;;5095052;28;20031;-78
2023/02/19 03:40:06;;;;;;;6.20;3.22;;;11.30;90.40;;;;;;5095782;28;20024;-79
2023/02/19 03:43:06;;;;;;;6.10;3.78;;;11.30;90.10;;;;;;5095361;28;20541;-79
2023/02/19 03:45:46;;;;;;;6.15;3.33;;;11.30;90.10;;;;;;5112272;28;20031;-78
2023/02/19 03:48:26;;;;;;;5.82;3.50;;;11.30;90.10;;;;;;5112713;28;20024;-78
2023/02/19 03:51:10;;;;;;;5.32;3.15;;;11.30;90.20;;;;;;5112629;28;20020;-79
2023/02/19 03:53:50;;;;;;;5.72;3.28;;;11.30;90.10;;;;;;5095062;28;20024;-79
2023/02/19 03:56:34;;;;;;;6.15;3.35;;;11.30;90.10;;;;;;5113126;28;20027;-79
2023/02/19 03:59:16;;;;;;;5.95;3.33;;;11.30;90.20;;;;;;5093220;28;20411;-78
2023/02/19 04:01:59;;;;;;;6.95;3.40;;;11.30;90.20;;;;;;5112563;28;20492;-78
2023/02/19 04:04:50;;;;;;;6.10;3.53;;;11.30;90.20;;;;;;5112686;28;20023;-79
2023/02/19 04:07:16;;;;;;;5.60;3.55;;;11.30;90.20;;;;;;5094231;28;20023;-78
2023/02/19 04:09:46;;;;;;;6.18;3.75;;;11.30;90.20;;;;;;5094400;28;20031;-79
2023/02/19 04:12:13;;;;;;;6.25;3.47;;;11.30;90.20;;;;;;5112211;28;20071;-79
2023/02/19 04:14:44;;;;;;;6.05;3.63;;;11.30;90.20;;;;;;5112938;28;20023;-78
2023/02/19 04:17:26;;;;;;;6.25;3.80;;;11.30;90.20;;;;;;5099313;28;20469;-79
2023/02/19 04:19:53;;;;;;;6.70;4.07;;;11.30;90.20;;;;;;5073136;28;20534;-78
2023/02/19 04:22:20;;;;;;;6.28;3.80;;;11.30;90.20;;;;;;5091652;28;20095;-78
2023/02/19 04:24:52;;;;;;;6.22;3.75;;;11.30;90.20;;;;;;5091515;28;20026;-79
2023/02/19 04:27:18;;;;;;;5.65;3.45;;;11.30;90.20;;;;;;5073872;28;20034;-79
2023/02/19 04:29:44;;;;;;;6.40;3.78;;;11.30;90.20;;;;;;5091870;28;20028;-79
2023/02/19 04:32:11;;;;;;;6.85;3.90;;;11.30;90.20;;;;;;5092317;28;20031;-78
2023/02/19 04:34:36;;;;;;;6.90;3.53;;;11.30;90.20;;;;;;5091658;28;20032;-78
2023/02/19 04:37:02;;;;;;;6.68;3.72;;;11.30;90.20;;;;;;5091060;28;20031;-78
2023/02/19 04:39:28;;;;;;;6.70;4.00;;;11.30;90.20;;;;;;5091650;28;20476;-78
2023/02/19 04:41:53;;;;;;;6.40;3.92;;;11.30;90.20;;;;;;5092054;28;20031;-79
2023/02/19 04:44:19;;;;;;;6.45;3.55;;;11.30;90.20;;;;;;5073662;28;20024;-78
2023/02/19 04:46:44;;;;;;;6.38;3.88;;;11.30;90.20;;;;;;5073130;28;20361;-78
2023/02/19 04:49:09;;;;;;;6.97;4.18;;;11.30;90.20;;;;;;5073485;28;20024;-79
2023/02/19 04:51:35;;;;;;;6.50;3.80;;;11.30;90.20;;;;;;5096010;28;20039;-79
2023/02/19 04:54:01;;;;;;;6.93;3.88;;;11.30;90.20;;;;;;5095708;28;20099;-79
2023/02/19 04:56:26;;;;;;;6.40;4.05;;;11.30;90.20;;;;;;5095499;28;20028;-79
2023/02/19 04:58:51;;;;;;;6.75;3.97;;;11.30;90.20;;;;;;5077460;28;20024;-79
2023/02/19 05:01:17;;;;;;;6.95;4.38;;;11.30;90.20;;;;;;5096225;28;20066;-79
2023/02/19 05:03:43;;;;;;;6.05;3.70;;;11.30;90.20;;;;;;5077440;28;20059;-79
2023/02/19 05:06:12;;;;;;;6.82;3.70;;;11.30;90.20;;;;;;5094658;28;20062;-79
2023/02/19 05:08:39;;;;;;;6.60;3.70;;;11.30;90.20;;;;;;5095349;28;20070;-79
2023/02/19 05:11:06;;;;;;;6.47;3.72;;;11.30;90.20;;;;;;5094742;28;20063;-79
2023/02/19 05:13:32;;;;;;;6.57;3.88;;;11.30;90.20;;;;;;5074963;28;20039;-79
2023/02/19 05:16:04;;;;;;;5.95;3.70;;;11.30;90.20;;;;;;5072694;28;20358;-78
2023/02/19 05:18:30;;;;;;;6.90;4.10;;;11.30;90.20;;;;;;5075102;28;20024;-79
2023/02/19 05:20:58;;;;;;;6.68;3.88;;;11.30;90.20;;;;;;5092545;28;20481;-78
2023/02/19 05:23:24;;;;;;;6.40;3.80;;;11.30;90.20;;;;;;5073848;28;20152;-79
2023/02/19 05:25:50;;;;;;;7.45;4.05;;;11.20;90.20;;;;;;5090699;28;20035;-78
2023/02/19 05:28:16;;;;;;;6.28;3.83;;;11.30;90.20;;;;;;5075355;28;20409;-79
2023/02/19 05:30:46;;;;;;;6.72;4.05;;;11.30;90.20;;;;;;5093860;28;20028;-79
2023/02/19 05:33:13;;;;;;;6.20;3.70;;;11.30;90.20;;;;;;5075618;28;20028;-79
2023/02/19 05:35:47;;;;;;;6.05;3.65;;;11.30;90.20;;;;;;5072526;28;20032;-78
2023/02/19 05:38:14;;;;;;;6.82;3.97;;;11.30;90.20;;;;;;5093004;28;20484;-79
2023/02/19 05:40:40;;;;;;;5.85;3.65;;;11.30;90.20;;;;;;5075556;28;20472;-79
2023/02/19 05:43:06;;;;;;;6.15;3.83;;;11.30;90.20;;;;;;5095397;28;20050;-79
2023/02/19 05:45:32;;;;;;;6.10;3.80;;;11.30;90.20;;;;;;5076958;28;20484;-79
2023/02/19 05:47:57;;;;;;;6.95;4.00;;;11.30;90.20;;;;;;5077362;28;20056;-79
2023/02/19 05:50:23;;;;;;;6.30;3.80;;;11.30;90.20;;;;;;5079816;28;20027;-79
2023/02/19 05:52:48;;;;;;;6.15;3.70;;;11.30;90.20;;;;;;5099087;28;20111;-79
2023/02/19 05:55:14;;;;;;;5.95;3.63;;;11.30;90.20;;;;;;5098695;28;20540;-79
2023/02/19 05:57:41;;;;;;;7.15;4.30;;;11.30;90.20;;;;;;5080002;28;20561;-79
2023/02/19 06:00:11;;;;;;;6.32;3.63;;;11.30;90.20;;;;;;5100493;28;20023;-78
2023/02/19 06:02:37;;;;;;;6.82;3.75;;;11.30;90.20;;;;;;5103174;28;20082;-77
2023/02/19 06:05:03;;;;;;;6.30;3.35;;;11.30;90.20;;;;;;5114519;28;20521;-79
2023/02/19 06:07:29;;;;;;;6.18;3.70;;;11.30;90.20;;;;;;5117820;28;20141;-79
2023/02/19 06:09:55;;;;;;;6.68;3.60;;;11.30;90.20;;;;;;5117901;28;20051;-79
2023/02/19 06:12:20;;;;;;;6.65;3.85;;;11.30;90.20;;;;;;5117125;28;20488;-78
2023/02/19 06:14:47;;;;;;;6.25;3.90;;;11.30;90.20;;;;;;5106990;28;20039;-78
2023/02/19 06:17:12;;;;;;;6.20;3.47;;;11.30;90.20;;;;;;5091158;28;20032;-79
2023/02/19 06:19:38;;;;;;;6.28;3.78;;;11.30;90.20;;;;;;5111584;28;20472;-79
2023/02/19 06:22:03;;;;;;;6.30;3.85;;;11.30;90.40;;;;;;5114995;28;20083;-78
2023/02/19 06:24:29;;;;;;;7.18;3.55;;;11.30;90.20;;;;;;5114089;28;20049;-77
2023/02/19 06:26:54;;;;;;;6.32;3.72;;;11.30;90.20;;;;;;5116211;28;20492;-80
2023/02/19 06:29:20;;;;;;;6.25;3.33;;;11.30;90.20;;;;;;5116791;28;20045;-78
2023/02/19 06:31:45;;;;;;;5.55;3.42;;;11.30;90.10;;;;;;5116408;28;20396;-79
2023/02/19 06:34:11;;;;;;;5.85;3.20;;;11.30;90.10;;;;;;5116485;28;20035;-79
2023/02/19 06:36:36;;;;;;;5.78;3.30;;;11.30;90.10;;;;;;5115844;28;20024;-79
2023/02/19 06:39:03;;;;;;;6.18;3.20;;;11.30;90.10;;;;;;5097531;28;20484;-79
2023/02/19 06:41:29;;;;;;;5.72;3.33;;;11.30;90.10;;;;;;5097142;28;20046;-79
2023/02/19 06:43:57;;;;;;;6.13;3.45;;;11.30;90.10;;;;;;5115553;28;20024;-79
2023/02/19 06:46:22;;;;;;;5.15;2.95;;;11.30;90.10;;;;;;5115522;28;20015;-79
2023/02/19 06:48:48;;;;;;;6.22;3.50;;;11.30;90.10;;;;;;5115759;28;20053;-79
2023/02/19 06:51:17;;;;;;;5.38;3.20;;;11.30;90.10;;;;;;5115194;28;20035;-79
2023/02/19 06:53:43;;;;;;;5.32;3.17;;;11.30;90.10;;;;;;5115388;28;20025;-79
2023/02/19 06:56:32;;;;;;;5.30;2.90;;;11.20;90.10;;;;;;5084058;28;20118;-77
2023/02/19 06:59:00;;;;;;;5.63;3.10;;;11.20;90.30;;;;;;5091601;28;20078;-76
2023/02/19 07:01:27;;;;;;;5.07;2.95;;;11.30;90.10;;;;;;5092800;28;20016;-79
2023/02/19 07:03:53;;;;;;;5.45;3.10;;;11.20;90.00;;;;;;5075493;28;20020;-78
2023/02/19 07:06:20;;;;;;;5.28;2.95;;;11.30;90.10;;;;;;5093364;28;20021;-79
2023/02/19 07:08:45;;;;;;;5.95;3.17;;;11.30;90.10;;;;;;5075437;28;20035;-81
2023/02/19 07:11:11;;;;;;;5.40;3.05;;;11.30;90.10;;;;;;5093981;28;20028;-79
2023/02/19 07:13:36;;;;;;;4.55;2.97;;;11.30;90.00;;;;;;5072104;28;20127;-80
2023/02/19 07:16:07;;;;;;;5.68;3.10;;;11.30;90.00;;;;;;5088249;28;20968;-79
2023/02/19 07:18:33;;;;;;;4.78;2.67;;;11.20;90.00;;;;;;5075026;28;20027;-77
2023/02/19 07:21:07;;;;;;;5.53;3.00;;;11.30;90.00;;;;;;5079531;28;20541;-78
2023/02/19 07:23:33;;;;;;;5.18;2.88;;;11.30;90.00;;;;;;5078939;28;20395;-77
2023/02/19 07:25:59;;;;;;;6.40;2.95;;;11.30;90.00;;;;;;5098218;28;20102;-77
2023/02/19 07:28:25;;;;;;;5.78;2.88;;;11.20;90.00;;;;;;5098450;28;20135;-76
2023/02/19 07:30:51;;;;;;;6.72;2.75;;;11.30;90.30;;;;;;5097286;28;20018;-79
2023/02/19 07:33:16;;;;;;;5.88;3.00;;;11.30;90.40;;;;;;5098181;28;20468;-77
2023/02/19 07:35:49;;;;;;;5.80;3.10;;;11.20;90.40;;;;;;5096371;28;20063;-78
2023/02/19 07:38:16;;;;;;;5.30;2.63;;;11.20;90.50;;;;;;5097329;28;20028;-78
2023/02/19 07:40:41;;;;;;;7.28;3.08;;;11.30;90.40;;;;;;5080172;28;20023;-77
2023/02/19 07:43:07;;;;;;;6.93;2.55;;;11.30;90.40;;;;;;5080702;28;20050;-77
2023/02/19 07:45:32;;;;;;;5.82;2.63;;;11.30;90.40;;;;;;5096360;28;20032;-79
2023/02/19 07:47:57;;;;;;;6.85;2.80;;;11.30;90.30;;;;;;5077500;28;20016;-79
2023/02/19 07:50:23;;;;;;;5.60;2.63;;;11.20;90.30;;;;;;5082313;28;20020;-78
2023/02/19 07:52:48;;;;;;;6.32;3.08;;;11.30;90.30;;;;;;5089072;28;20107;-79
2023/02/19 07:55:14;;;;;;;5.90;2.60;;;11.30;90.30;;;;;;5074844;28;20024;-79
2023/02/19 07:57:39;;;;;;;6.05;2.75;;;11.30;90.20;;;;;;5080171;28;20031;-78
2023/02/19 08:00:05;;;;;;;6.20;2.80;;;11.30;90.20;;;;;;5110404;28;20102;-79
2023/02/19 08:05:15;;;;;;;7.38;2.85;;;11.30;90.20;;;;;;5116882;28;20042;-80
2023/02/19 08:07:40;;;;;;;5.93;2.90;;;11.30;90.20;;;;;;5092525;28;20548;-80
2023/02/19 08:15:43;;;;;;;4.97;2.65;;;11.30;90.10;;;;;;5091326;28;20466;-80
2023/02/19 08:18:09;;;;;;;4.50;2.28;;;11.30;90.10;;;;;;5093122;28;20024;-81
2023/02/19 08:20:35;;;;;;;6.85;2.70;;;11.30;90.10;;;;;;5095623;28;20054;-79
2023/02/19 08:23:01;;;;;;;7.32;2.92;;;11.20;90.00;;;;;;5076599;28;20106;-80
2023/02/19 08:25:27;;;;;;;4.43;2.20;;;11.30;90.00;;;;;;5074544;28;20020;-79
2023/02/19 08:27:52;;;;;;;4.40;2.40;;;11.30;90.00;;;;;;5092146;28;20039;-79
2023/02/19 08:30:17;;;;;;;4.65;2.40;;;11.30;90.00;;;;;;5089470;28;20070;-78
2023/02/19 08:32:43;;;;;;;4.20;2.30;;;11.30;90.00;;;;;;5094508;28;20024;-79
2023/02/19 08:35:08;;;;;;;4.75;2.40;;;11.30;90.00;;;;;;5084858;28;20028;-79
2023/02/19 08:37:34;;;;;;;4.82;2.63;;;11.20;90.00;;;;;;5101919;28;20023;-81
2023/02/19 08:39:59;;;;;;;4.45;2.17;;;11.30;90.00;;;;;;5093381;28;20111;-83
2023/02/19 08:42:26;;;;;;;4.10;2.22;;;11.30;90.00;;;;;;5094888;28;20026;-81
2023/02/19 08:44:52;;;;;;;4.78;2.20;;;11.30;90.00;;;;;;5094782;28;20035;-81
2023/02/19 08:47:17;;;;;;;5.38;2.25;;;11.30;90.00;;;;;;5099990;28;20054;-76
2023/02/19 08:49:43;;;;;;;4.25;2.10;;;11.20;90.00;;;;;;5090475;28;20480;-78
2023/02/19 08:52:08;;;;;;;4.47;2.15;;;11.30;90.00;;;;;;5088990;28;20032;-79
2023/02/19 08:54:34;;;;;;;4.45;2.00;;;11.30;89.90;;;;;;5091288;28;20503;-80
2023/02/19 08:56:59;;;;;;;4.13;2.15;;;11.30;90.00;;;;;;5091067;28;20028;-77
2023/02/19 08:59:27;;;;;;;4.82;2.35;;;11.30;89.90;;;;;;5072899;28;20035;-80
2023/02/19 09:01:53;;;;;;;3.90;2.00;;;11.30;89.80;;;;;;5072648;28;20058;-80
2023/02/19 09:04:18;;;;;;;4.57;2.28;;;11.30;89.80;;;;;;5073571;28;20028;-83
2023/02/19 09:06:44;;;;;;;3.58;2.05;;;11.30;89.80;;;;;;5073433;28;20024;-80
2023/02/19 09:09:09;;;;;;;4.82;2.13;;;11.30;89.80;;;;;;5095805;28;20529;-81
2023/02/19 09:11:38;;;;;;;4.63;2.08;;;11.30;89.80;;;;;;5074384;28;20024;-81
2023/02/19 09:14:06;;;;;;;4.30;2.25;;;11.30;89.70;;;;;;5072778;28;20024;-81
2023/02/19 09:16:32;;;;;;;3.92;2.00;;;11.30;89.70;;;;;;5092147;28;20059;-78
2023/02/19 09:18:57;;;;;;;3.75;2.28;;;11.30;89.70;;;;;;5098935;28;20027;-80
2023/02/19 09:21:23;;;;;;;3.53;2.05;;;11.30;89.70;;;;;;5091329;28;20190;-82
2023/02/19 09:23:48;;;;;;;3.15;1.90;;;11.30;89.60;;;;;;5074973;28;20024;-82
2023/02/19 09:26:14;;;;;;;3.70;2.00;;;11.30;89.50;;;;;;5094822;28;20032;-80
2023/02/19 09:28:40;;;;;;;4.45;1.85;;;11.30;89.50;;;;;;5076906;28;20058;-80
2023/02/19 09:31:12;;;;;;;3.47;1.90;;;11.30;89.50;;;;;;5094845;28;20028;-79
2023/02/19 09:33:42;;;;;;;3.40;1.88;;;11.30;89.40;;;;;;5094251;28;20202;-80
2023/02/19 09:36:07;;;;;;;3.92;2.13;;;11.30;89.40;;;;;;5094093;28;20048;-81
2023/02/19 09:38:33;;;;;;;3.70;1.95;;;11.30;89.40;;;;;;5095137;28;20388;-82
2023/02/19 09:41:06;;;;;;;3.85;2.00;;;11.30;89.40;;;;;;5074764;28;20054;-80
2023/02/19 09:43:32;;;;;;;5.18;1.88;;;11.30;89.40;;;;;;5093768;28;20519;-80
2023/02/19 09:46:30;;;;;;;3.85;2.00;;;11.30;89.40;;;;;;5093944;28;20484;-81
2023/02/19 09:49:03;;;;;;;4.50;2.13;;;11.30;89.30;;;;;;5093924;28;20028;-80
2023/02/19 09:51:31;;;;;;;4.07;2.10;;;11.40;89.30;;;;;;5075575;28;20024;-80
2023/02/19 09:53:57;;;;;;;4.18;2.10;;;11.40;89.20;;;;;;5075783;28;20446;-81
2023/02/19 09:56:25;;;;;;;4.82;2.00;;;11.40;89.20;;;;;;5074412;28;20118;-79
2023/02/19 09:58:57;;;;;;;3.33;1.88;;;11.40;89.00;;;;;;5074598;28;20027;-80
2023/02/19 10:01:27;;;;;;;3.35;1.80;;;11.40;88.90;;;;;;5093650;28;20032;-80
2023/02/19 10:03:53;;;;;;;3.72;1.83;;;11.50;88.80;;;;;;5093829;28;20032;-80
2023/02/19 10:06:24;;;;;;;3.28;1.80;;;11.50;88.70;;;;;;5073658;28;20038;-80
2023/02/19 10:08:53;;;;;;;3.88;1.75;;;11.50;88.60;;;;;;5075219;28;20102;-78
2023/02/19 10:11:19;;;;;;;3.58;1.77;;;11.50;88.50;;;;;;5075276;28;20032;-79
2023/02/19 10:14:03;;;;;;;3.83;1.90;;;11.50;88.50;;;;;;5092916;28;20500;-80
2023/02/19 10:16:29;;;;;;;2.67;1.60;;;11.50;88.50;;;;;;5075121;28;20016;-78
2023/02/19 10:18:55;;;;;;;4.25;2.20;;;11.50;88.40;;;;;;5072824;28;20031;-78
2023/02/19 10:21:23;;;;;;;3.70;1.90;;;11.60;88.50;;;;;;5071662;28;20030;-76
2023/02/19 10:24:00;;;;;;;2.92;1.73;;;11.60;88.40;;;;;;5090023;28;20032;-78
2023/02/19 10:26:26;;;;;;;3.08;1.70;;;11.60;88.40;;;;;;5071199;28;20384;-77
2023/02/19 10:28:53;;;;;;;4.45;1.88;;;11.60;88.30;;;;;;5069204;28;20511;-77
2023/02/19 10:31:24;;;;;;;4.57;1.80;;;11.60;88.30;;;;;;5095247;28;20031;-79
2023/02/19 10:33:54;;;;;;;4.47;2.00;;;11.60;88.20;;;;;;5111644;28;20426;-78
2023/02/19 10:36:32;;;;;;;2.92;1.65;;;11.60;88.20;;;;;;5091847;28;20032;-77
2023/02/19 10:38:59;;;;;;;2.90;1.60;;;11.60;88.20;;;;;;5111152;28;20073;-78
2023/02/19 10:41:26;;;;;;;3.58;1.70;;;11.60;88.20;;;;;;5092571;28;20027;-79
2023/02/19 10:43:59;;;;;;;3.50;1.60;;;11.50;88.20;;;;;;5091071;28;20036;-79
2023/02/19 10:46:30;;;;;;;4.28;1.70;;;11.60;88.00;;;;;;5073428;28;20036;-80
2023/02/19 10:49:02;;;;;;;29.27;3.50;;;11.60;87.90;;;;;;5087539;28;20050;-79
2023/02/19 10:51:35;;;;;;;25.33;2.63;;;11.60;87.70;;;;;;5074995;28;20024;-79
2023/02/19 10:54:18;;;;;;;12.50;2.40;;;11.60;87.50;;;;;;5091384;28;20059;-79
2023/02/19 10:56:44;;;;;;;17.25;2.78;;;11.50;87.30;;;;;;5091365;28;20058;-79
2023/02/19 10:59:27;;;;;;;13.55;2.40;;;11.60;87.70;;;;;;5091501;28;20032;-80
2023/02/19 11:02:01;;;;;;;15.73;2.53;;;11.70;87.00;;;;;;5074143;28;20053;-79
2023/02/19 11:04:32;;;;;;;13.48;2.13;;;11.70;87.00;;;;;;5090833;28;20511;-79
2023/02/19 11:07:06;;;;;;;13.82;2.40;;;11.70;86.90;;;;;;5074283;28;20048;-80
2023/02/19 11:09:38;;;;;;;12.35;2.60;;;11.70;86.80;;;;;;5092364;28;20052;-79
2023/02/19 11:12:04;;;;;;;9.10;2.33;;;11.70;86.70;;;;;;5091044;28;20089;-81
2023/02/19 11:14:32;;;;;;;11.07;2.05;;;11.70;86.50;;;;;;5097378;28;20115;-80
2023/02/19 11:17:01;;;;;;;9.70;2.20;;;11.80;86.40;;;;;;5093648;28;20123;-80
2023/02/19 11:19:41;;;;;;;13.73;1.80;;;11.90;86.10;;;;;;5112530;28;20027;-78
2023/02/19 11:22:28;;;;;;;6.95;1.98;;;12.00;85.70;;;;;;5111665;28;20027;-79
2023/02/19 11:24:54;;;;;;;7.63;2.22;;;12.10;85.40;;;;;;5110729;28;20455;-79
2023/02/19 11:27:24;;;;;;;16.10;2.10;;;12.10;85.20;;;;;;5093039;28;20110;-80
2023/02/19 11:29:50;;;;;;;7.40;2.13;;;12.20;85.00;;;;;;5092838;28;20118;-81
2023/02/19 11:32:29;;;;;;;11.35;1.90;;;12.20;84.80;;;;;;5094594;28;20063;-78
2023/02/19 11:35:16;;;;;;;4.95;1.63;;;12.20;84.70;;;;;;5115079;28;20069;-80
2023/02/19 11:37:59;;;;;;;17.48;2.30;;;12.20;84.70;;;;;;5100048;28;20024;-81
2023/02/19 11:40:56;;;;;;;41.35;5.18;;;12.20;83.70;;;;;;5097689;28;20019;-80
2023/02/19 11:43:39;;;;;;;60.50;5.32;;;12.10;83.50;;;;;;5101373;28;20034;-81
2023/02/19 11:46:50;;;;;;;40.88;5.80;;;12.10;84.20;;;;;;5116968;28;20023;-78
2023/02/19 11:49:42;;;;;;;43.60;4.80;;;12.10;84.30;;;;;;5092120;28;20673;-82
2023/02/19 11:52:13;;;;;;;37.25;4.88;;;12.10;84.60;;;;;;5097714;28;20023;-81
2023/02/19 11:54:42;;;;;;;25.65;3.38;;;12.10;85.00;;;;;;5115095;28;20497;-81
2023/02/19 11:57:13;;;;;;;26.60;3.03;;;12.10;85.00;;;;;;5094822;28;20120;-80
2023/02/19 11:59:47;;;;;;;;;;;12.20;84.20;;;;;;5115023;28;20023;-82
2023/02/19 12:02:57;;;;;;;16.23;2.75;;;12.20;84.10;;;;;;5113536;28;19912;-82
2023/02/19 12:05:30;;;;;;;20.58;2.80;;;12.30;84.10;;;;;;5113491;28;20536;-80
2023/02/19 12:08:20;;;;;;;22.10;2.90;;;12.40;84.00;;;;;;5113814;28;20028;-81
2023/02/19 12:11:07;;;;;;;19.08;3.50;;;12.40;83.80;;;;;;5101331;28;20023;-83
2023/02/19 12:14:10;;;;;;;12.90;2.58;;;12.50;83.60;;;;;;5113714;28;20504;-83
2023/02/19 12:16:42;;;;;;;19.05;2.92;;;12.50;83.50;;;;;;5095095;28;20054;-81
2023/02/19 12:19:30;;;;;;;17.95;2.70;;;12.50;83.50;;;;;;5095388;28;20688;-82
2023/02/19 12:22:35;;;;;;;14.18;2.47;;;12.50;83.80;;;;;;5094411;28;20035;-82
2023/02/19 12:25:15;;;;;;;11.27;2.55;;;12.40;84.00;;;;;;5082130;28;20038;-81
2023/02/19 12:27:51;;;;;;;11.50;2.78;;;12.50;83.90;;;;;;5074748;28;20020;-81
2023/02/19 12:30:42;;;;;;;9.77;1.90;;;12.50;83.80;;;;;;5090101;28;20042;-81
2023/02/19 12:33:47;;;;;;;11.38;2.33;;;12.50;84.30;;;;;;5070631;28;20067;-81
2023/02/19 12:36:36;;;;;;;10.75;2.40;;;12.50;83.70;;;;;;5087300;28;20059;-80
2023/02/19 12:39:12;;;;;;;10.68;1.92;;;12.50;84.00;;;;;;5088197;28;20028;-82
2023/02/19 12:41:42;;;;;;;7.65;2.25;;;12.40;84.20;;;;;;5090532;28;20040;-81
2023/02/19 12:44:21;;;;;;;12.48;2.13;;;12.40;84.30;;;;;;5089309;28;20089;-81
2023/02/19 12:46:52;;;;;;;10.02;2.20;;;12.40;84.40;;;;;;5089699;28;20023;-81
2023/02/19 12:49:25;;;;;;;6.75;1.83;;;12.40;84.50;;;;;;5089414;28;20032;-80
2023/02/19 12:51:57;;;;;;;7.88;2.35;;;12.30;84.60;;;;;;5086299;28;20397;-81
2023/02/19 12:54:25;;;;;;;6.75;1.50;;;12.30;84.70;;;;;;5087954;28;20032;-81
2023/02/19 12:57:01;;;;;;;10.95;1.85;;;12.30;84.80;;;;;;5087454;28;20059;-81
2023/02/19 12:59:30;;;;;;;8.60;2.05;;;12.30;84.90;;;;;;5090933;28;20506;-79
2023/02/19 13:02:48;;;;;;;8.93;1.88;;;12.20;84.90;;;;;;5092356;28;20067;-81
2023/02/19 13:05:22;;;;;;;6.63;1.60;;;12.20;85.00;;;;;;4990558;28;20121;-81
2023/02/19 13:08:31;;;;;;;9.48;2.03;;;12.30;85.10;;;;;;5088294;28;20068;-80
2023/02/19 13:11:22;;;;;;;6.75;1.52;;;12.20;85.10;;;;;;5075958;28;20036;-82
2023/02/19 13:13:56;;;;;;;9.52;2.10;;;12.20;85.20;;;;;;5079619;28;20520;-81
2023/02/19 13:16:24;;;;;;;8.35;1.70;;;12.20;85.20;;;;;;5093579;28;20198;-81
2023/02/19 13:18:59;;;;;;;7.97;1.77;;;12.20;85.20;;;;;;5091742;28;20050;-80
2023/02/19 13:24:23;;;;;;;7.25;1.80;;;12.20;85.20;;;;;;5094640;28;20075;-80
2023/02/19 13:27:27;;;;;;;9.55;1.88;;;12.20;85.20;;;;;;5090131;28;20034;-83
2023/02/19 13:30:20;;;;;;;7.35;1.70;;;12.20;85.30;;;;;;5073689;28;20028;-80
2023/02/19 13:33:04;;;;;;;6.20;2.00;;;12.20;85.20;;;;;;5089818;28;20039;-80
2023/02/19 13:36:00;;;;;;;6.40;1.80;;;12.20;85.30;;;;;;5072874;28;20032;-79
2023/02/19 13:38:26;;;;;;;7.13;1.58;;;12.20;85.30;;;;;;5088326;28;20527;-81
2023/02/19 13:41:01;;;;;;;8.52;1.80;;;12.20;85.30;;;;;;5089359;28;20036;-80